Murphy, Iowa
Current Conditions -  °F | °C
As of 2:54 PM on Saturday 25 Oct 2014 (Local Time) from KALO Reporting Station
Clear Clear  
Wind Chill: 67°   Ceiling: Unl
Heat Index: 67°   Visibility: 10mi
Dew Point: 32°   Wind: 14mph
Humidity: 27%   Direction: 320°NW
Pressure: 30.05"   Gusts: NA
Location:  42.787°N, 92.4284°W
Report Text: KALO 251954Z 32012KT 10SM CLR 19/00 A3005 RMK AO2 SLP175 T01940000
Loading
Personal Weather Stations






























Interactive Weather Map
Tropical Storm Tracking
New forecast layout! Learn more

10-Day Weather Forecast

Advertisements
Track Severe Weather on mobile